Time;durP1;ratioP1;P1;durP2;ratioP2;P2;SDS_P1;SDS_P2;PMS_P1;PMS_P2;Temp;Humidity;BMP_temperature;BMP_pressure;BME280_temperature;BME280_humidity;BME280_pressure;Samples;Min_cycle;Max_cycle;Signal;HPM_P1;HPM_P2
2023/04/28 00:00:35;;;;;;;20.88;10.48;;;;;;;4.09;97.54;98531.59;2570706;28;20604;-81
2023/04/28 00:02:06;;;;;;;20.27;10.20;;;;;;;4.02;97.21;98533.34;2570486;28;20094;-82
2023/04/28 00:03:22;;;;;;;20.90;9.35;;;;;;;3.85;100.00;98532.47;2570069;28;20137;-82
2023/04/28 00:04:38;;;;;;;19.92;9.52;;;;;;;3.99;100.00;98533.34;2568547;28;20146;-83
2023/04/28 00:05:53;;;;;;;21.52;10.10;;;;;;;3.75;100.00;98532.47;2568422;28;20482;-82
2023/04/28 00:07:09;;;;;;;25.15;10.15;;;;;;;3.99;99.98;98529.91;2567277;28;20055;-83
2023/04/28 00:08:26;;;;;;;22.88;9.80;;;;;;;4.02;99.38;98527.31;2567262;28;20073;-83
2023/04/28 00:09:41;;;;;;;22.00;10.68;;;;;;;3.70;100.00;98526.44;2567079;28;20629;-83
2023/04/28 00:10:57;;;;;;;23.00;9.60;;;;;;;3.64;100.00;98531.59;2567550;28;20085;-83
2023/04/28 00:12:12;;;;;;;21.35;9.93;;;;;;;3.80;100.00;98533.34;2567247;28;20094;-82
2023/04/28 00:13:28;;;;;;;18.05;9.20;;;;;;;3.70;100.00;98535.91;2567577;28;20494;-83
2023/04/28 00:14:44;;;;;;;23.67;9.90;;;;;;;3.75;100.00;98527.28;2567664;28;20521;-83
2023/04/28 00:16:00;;;;;;;22.20;10.05;;;;;;;3.46;100.00;98529.84;2567780;28;20962;-82
2023/04/28 00:17:16;;;;;;;22.45;9.77;;;;;;;3.50;100.00;98528.97;2567510;28;20058;-83
2023/04/28 00:18:32;;;;;;;22.65;10.05;;;;;;;3.40;100.00;98525.50;2568007;28;20474;-83
2023/04/28 00:19:49;;;;;;;22.90;9.18;;;;;;;3.69;100.00;98527.28;2558074;29;20101;-82
2023/04/28 00:21:05;;;;;;;22.17;10.35;;;;;;;3.72;100.00;98521.25;2562938;28;20062;-82
2023/04/28 00:22:20;;;;;;;18.23;9.65;;;;;;;3.81;100.00;98524.72;2569357;28;20058;-82
2023/04/28 00:23:36;;;;;;;16.63;9.27;;;;;;;3.79;100.00;98520.38;2570122;28;20142;-82
2023/04/28 00:24:52;;;;;;;20.45;10.10;;;;;;;3.89;100.00;98524.72;2569392;28;20615;-82
2023/04/28 00:26:07;;;;;;;21.27;9.45;;;;;;;3.92;100.00;98523.88;2569568;28;20524;-83
2023/04/28 00:27:23;;;;;;;24.30;10.45;;;;;;;3.94;100.00;98522.13;2569608;28;20505;-83
2023/04/28 00:28:38;;;;;;;21.15;9.90;;;;;;;3.85;100.00;98520.41;2569587;28;20059;-82
2023/04/28 00:29:54;;;;;;;25.65;10.77;;;;;;;3.91;100.00;98517.81;2569451;28;20058;-82
2023/04/28 00:31:11;;;;;;;23.67;10.50;;;;;;;3.73;100.00;98516.06;2569492;28;20055;-82
2023/04/28 00:32:27;;;;;;;19.27;9.82;;;;;;;3.90;100.00;98516.09;2569499;28;20141;-82
2023/04/28 00:33:43;;;;;;;23.98;9.63;;;;;;;4.03;100.00;98516.94;2569494;28;20051;-82
2023/04/28 00:34:59;;;;;;;24.92;11.20;;;;;;;3.63;100.00;98516.91;2569299;28;20054;-82
2023/04/28 00:36:15;;;;;;;27.20;10.57;;;;;;;3.69;100.00;98516.94;2569061;28;20069;-82
2023/04/28 00:37:34;;;;;;;24.00;10.80;;;;;;;3.74;100.00;98520.38;2569392;28;20070;-82
2023/04/28 00:38:49;;;;;;;26.38;10.30;;;;;;;3.85;100.00;98515.22;2569280;28;20055;-82
2023/04/28 00:40:06;;;;;;;23.27;10.68;;;;;;;3.84;100.00;98507.44;2569566;28;20086;-82
2023/04/28 00:41:21;;;;;;;23.40;10.23;;;;;;;3.81;100.00;98511.75;2569293;28;20200;-82
2023/04/28 00:42:37;;;;;;;21.08;10.07;;;;;;;3.81;100.00;98509.19;2569531;28;20050;-82
2023/04/28 00:43:53;;;;;;;23.98;10.02;;;;;;;3.94;100.00;98504.84;2569222;28;20059;-82
2023/04/28 00:45:08;;;;;;;24.60;10.13;;;;;;;3.92;100.00;98506.56;2569813;28;20065;-82
2023/04/28 00:46:29;;;;;;;23.52;10.38;;;;;;;4.00;100.00;98511.75;2569159;28;20100;-82
2023/04/28 00:47:44;;;;;;;22.90;10.68;;;;;;;3.90;100.00;98505.72;2569205;28;20474;-82
2023/04/28 00:49:00;;;;;;;24.23;10.13;;;;;;;3.64;100.00;98505.72;2569433;28;20058;-84
2023/04/28 00:50:16;;;;;;;22.67;10.35;;;;;;;3.80;100.00;98504.84;2568825;28;20966;-82
2023/04/28 00:51:32;;;;;;;27.10;10.07;;;;;;;3.64;100.00;98497.94;2569299;28;20078;-83
2023/04/28 00:52:48;;;;;;;26.30;10.15;;;;;;;3.67;100.00;98509.16;2569500;28;20067;-82
2023/04/28 00:54:05;;;;;;;19.15;8.82;;;;;;;3.32;100.00;98496.16;2569237;28;20054;-82
2023/04/28 00:55:23;;;;;;;20.08;9.35;;;;;;;3.08;100.00;98498.69;2568924;28;20518;-82
2023/04/28 00:56:39;;;;;;;19.20;9.88;;;;;;;3.44;100.00;98495.34;2569293;28;20086;-83
2023/04/28 00:57:56;;;;;;;23.42;9.27;;;;;;;3.36;100.00;98492.72;2569327;28;20069;-83
2023/04/28 00:59:12;;;;;;;21.77;10.05;;;;;;;3.59;100.00;98494.47;2569120;28;20551;-82
2023/04/28 01:00:27;;;;;;;23.40;10.27;;;;;;;3.59;100.00;98494.47;2569136;28;20059;-82
2023/04/28 01:01:43;;;;;;;20.42;9.48;;;;;;;3.73;100.00;98492.75;2569181;28;20110;-82
2023/04/28 01:02:59;;;;;;;20.38;9.40;;;;;;;3.89;100.00;98491.03;2558066;29;20090;-82
2023/04/28 01:04:19;;;;;;;21.05;9.35;;;;;;;3.88;100.00;98483.25;2562392;28;20058;-83
2023/04/28 01:05:35;;;;;;;21.88;10.25;;;;;;;3.92;100.00;98491.03;2568945;28;21070;-82
2023/04/28 01:06:52;;;;;;;19.70;9.95;;;;;;;3.86;100.00;98488.47;2568779;28;20886;-84
2023/04/28 01:08:08;;;;;;;19.35;9.77;;;;;;;3.85;100.00;98491.03;2568997;28;20059;-83
2023/04/28 01:09:23;;;;;;;21.00;10.00;;;;;;;3.73;100.00;98495.34;2568882;28;20047;-83
2023/04/28 01:10:43;;;;;;;23.92;9.73;;;;;;;3.56;100.00;98492.72;2568943;28;20087;-82
2023/04/28 01:11:59;;;;;;;23.48;10.23;;;;;;;3.41;100.00;98485.84;2568828;28;20061;-83
2023/04/28 01:13:14;;;;;;;23.00;10.25;;;;;;;3.45;100.00;98487.56;2568223;28;20059;-82
2023/04/28 01:14:33;;;;;;;27.30;10.73;;;;;;;3.39;100.00;98482.38;2569089;28;20093;-82
2023/04/28 01:15:49;;;;;;;25.45;10.20;;;;;;;3.34;100.00;98484.06;2568993;28;20054;-82
2023/04/28 01:17:06;;;;;;;20.63;10.02;;;;;;;3.40;100.00;98489.28;2568786;28;20399;-82
2023/04/28 01:18:22;;;;;;;29.35;11.45;;;;;;;3.53;100.00;98490.16;2557991;29;20051;-84
2023/04/28 01:19:38;;;;;;;22.50;10.60;;;;;;;3.70;100.00;98487.59;2562925;28;20086;-82
2023/04/28 01:20:53;;;;;;;21.63;9.95;;;;;;;3.68;100.00;98489.31;2568836;28;20057;-82
2023/04/28 01:22:12;;;;;;;20.55;9.90;;;;;;;3.60;100.00;98486.72;2569060;28;20118;-82
2023/04/28 01:23:28;;;;;;;25.73;11.07;;;;;;;3.69;100.00;98496.22;2568801;28;20113;-82
2023/04/28 01:24:43;;;;;;;23.40;10.45;;;;;;;3.59;100.00;98490.19;2558123;29;20111;-82
2023/04/28 01:26:00;;;;;;;20.27;9.60;;;;;;;3.51;100.00;98481.53;2562451;28;20470;-82
2023/04/28 01:27:15;;;;;;;22.80;10.23;;;;;;;3.71;100.00;98491.91;2568745;28;20057;-82
2023/04/28 01:28:31;;;;;;;20.60;10.27;;;;;;;3.58;100.00;98487.56;2568712;28;20498;-82
2023/04/28 01:29:47;;;;;;;23.73;10.35;;;;;;;3.61;100.00;98491.03;2568309;28;20524;-83
2023/04/28 01:31:02;;;;;;;18.20;9.50;;;;;;;3.63;100.00;98493.59;2568894;28;20490;-82
2023/04/28 01:32:18;;;;;;;22.63;9.80;;;;;;;3.66;100.00;98488.47;2568736;28;20362;-82
2023/04/28 01:33:35;;;;;;;22.42;9.25;;;;;;;3.36;100.00;98490.16;2568601;28;20623;-82
2023/04/28 01:34:51;;;;;;;21.60;9.75;;;;;;;3.15;100.00;98489.22;2568740;28;20050;-83
2023/04/28 01:36:06;;;;;;;25.00;10.13;;;;;;;3.41;100.00;98495.31;2568645;28;20114;-82
2023/04/28 01:37:22;;;;;;;22.17;10.20;;;;;;;3.49;100.00;98484.13;2558068;29;20052;-82
2023/04/28 01:38:38;;;;;;;26.63;10.35;;;;;;;3.48;100.00;98484.13;2562287;28;20062;-83
2023/04/28 01:39:53;;;;;;;21.80;9.85;;;;;;;3.57;100.00;98471.19;2568774;28;20418;-83
2023/04/28 01:41:09;;;;;;;24.98;10.02;;;;;;;3.34;100.00;98473.72;2568438;28;20215;-83
2023/04/28 01:42:25;;;;;;;21.85;9.88;;;;;;;3.30;100.00;98474.59;2568452;28;20050;-82
2023/04/28 01:43:40;;;;;;;24.77;9.90;;;;;;;3.48;100.00;98473.75;2568511;28;20498;-82
2023/04/28 01:44:56;;;;;;;23.65;10.25;;;;;;;3.30;100.00;98478.06;2568871;28;20055;-82
2023/04/28 01:46:13;;;;;;;20.90;9.73;;;;;;;3.37;100.00;98473.75;2568620;28;20058;-82
2023/04/28 01:47:28;;;;;;;21.10;9.43;;;;;;;3.40;100.00;98476.34;2568736;28;20047;-82
2023/04/28 01:48:44;;;;;;;24.70;10.85;;;;;;;3.33;100.00;98478.06;2568640;28;20074;-83
2023/04/28 01:50:00;;;;;;;23.33;9.35;;;;;;;3.25;100.00;98480.63;2568347;28;20078;-82
2023/04/28 01:51:16;;;;;;;22.42;9.80;;;;;;;3.19;100.00;98477.16;2568126;28;20059;-83
2023/04/28 01:52:31;;;;;;;25.90;10.00;;;;;;;3.21;100.00;98478.91;2568718;28;20066;-83
2023/04/28 01:53:47;;;;;;;24.10;10.20;;;;;;;3.24;100.00;98473.72;2568783;28;20441;-83
2023/04/28 01:55:03;;;;;;;18.55;9.60;;;;;;;3.19;100.00;98477.16;2568409;28;20517;-83
2023/04/28 01:56:19;;;;;;;19.55;9.60;;;;;;;3.28;100.00;98484.09;2568302;28;21078;-84
2023/04/28 01:57:35;;;;;;;22.30;10.25;;;;;;;3.20;100.00;98481.47;2568420;28;20478;-81
2023/04/28 01:58:50;;;;;;;22.52;10.20;;;;;;;3.32;100.00;98480.63;2568569;28;20055;-82
2023/04/28 02:00:07;;;;;;;20.13;9.65;;;;;;;3.38;100.00;98475.47;2557596;29;20077;-82
2023/04/28 02:01:22;;;;;;;16.98;9.27;;;;;;;3.29;100.00;98476.34;2562496;28;20062;-82
2023/04/28 02:02:38;;;;;;;22.77;9.45;;;;;;;3.30;100.00;98478.06;2568386;28;20253;-84
2023/04/28 02:03:54;;;;;;;18.08;9.00;;;;;;;3.30;100.00;98472.88;2568313;28;20078;-82
2023/04/28 02:05:11;;;;;;;19.60;9.23;;;;;;;3.35;100.00;98480.63;2557167;29;20098;-84
2023/04/28 02:06:26;;;;;;;20.65;10.07;;;;;;;3.23;100.00;98473.72;2561804;28;20070;-82
2023/04/28 02:07:42;;;;;;;19.77;9.90;;;;;;;3.33;100.00;98472.88;2568284;28;20079;-81
2023/04/28 02:08:58;;;;;;;20.98;9.27;;;;;;;3.32;100.00;98473.75;2568225;28;20474;-82
2023/04/28 02:10:13;;;;;;;20.17;9.00;;;;;;;3.44;100.00;98475.47;2568297;28;20054;-82
2023/04/28 02:11:29;;;;;;;23.00;9.38;;;;;;;3.31;100.00;98473.72;2557449;29;20514;-83
2023/04/28 02:12:44;;;;;;;19.67;8.90;;;;;;;3.37;100.00;98473.75;2561514;28;20050;-83
2023/04/28 02:14:00;;;;;;;22.33;9.48;;;;;;;3.52;100.00;98471.19;2568091;28;20058;-82
2023/04/28 02:15:15;;;;;;;23.02;9.13;;;;;;;3.49;100.00;98473.78;2568476;28;20141;-83
2023/04/28 02:16:32;;;;;;;18.77;9.15;;;;;;;3.57;100.00;98478.97;2568384;28;20098;-82
2023/04/28 02:17:47;;;;;;;18.15;9.82;;;;;;;3.58;100.00;98467.75;2568453;28;20146;-83
2023/04/28 02:19:03;;;;;;;22.48;10.43;;;;;;;3.65;100.00;98473.78;2568372;28;20062;-82
2023/04/28 02:20:19;;;;;;;20.70;9.95;;;;;;;3.73;100.00;98479.81;2568504;28;20066;-83
2023/04/28 02:21:34;;;;;;;20.70;9.70;;;;;;;3.73;100.00;98476.38;2568129;28;20641;-82
2023/04/28 02:22:50;;;;;;;21.02;9.27;;;;;;;3.77;100.00;98476.38;2568216;28;20058;-83
2023/04/28 02:24:07;;;;;;;23.73;10.02;;;;;;;3.80;100.00;98475.50;2568488;28;20058;-83
2023/04/28 02:25:22;;;;;;;23.45;10.00;;;;;;;3.79;100.00;98481.53;2568535;28;20093;-83
2023/04/28 02:26:38;;;;;;;23.05;9.50;;;;;;;3.86;100.00;98480.69;2568186;28;20054;-83
2023/04/28 02:27:53;;;;;;;20.35;9.85;;;;;;;3.82;100.00;98476.34;2568486;28;20058;-83
2023/04/28 02:29:09;;;;;;;21.58;9.88;;;;;;;3.81;100.00;98475.50;2568318;28;20058;-83
2023/04/28 02:30:24;;;;;;;19.17;9.82;;;;;;;3.77;100.00;98472.91;2568351;28;20058;-83
2023/04/28 02:31:40;;;;;;;22.92;9.90;;;;;;;3.77;100.00;98478.09;2577402;28;20046;-84
2023/04/28 02:32:55;;;;;;;21.52;10.15;;;;;;;3.79;100.00;98489.31;2573834;28;20054;-83
2023/04/28 02:34:13;;;;;;;22.90;10.32;;;;;;;3.83;100.00;98480.66;2567994;28;20090;-82
2023/04/28 02:35:28;;;;;;;21.52;9.70;;;;;;;3.84;100.00;98486.72;2568088;28;20051;-83
2023/04/28 02:36:44;;;;;;;22.80;9.85;;;;;;;3.85;100.00;98484.16;2568256;28;20055;-83
2023/04/28 02:37:59;;;;;;;19.65;9.38;;;;;;;3.76;100.00;98491.91;2568315;28;20125;-83
2023/04/28 02:39:15;;;;;;;24.25;9.88;;;;;;;3.81;100.00;98491.03;2557355;29;20058;-83
2023/04/28 02:40:30;;;;;;;18.88;9.75;;;;;;;3.89;100.00;98496.22;2561444;28;20062;-82
2023/04/28 02:41:46;;;;;;;19.77;9.07;;;;;;;3.84;100.00;98484.13;2567686;28;20086;-85
2023/04/28 02:43:02;;;;;;;24.70;9.85;;;;;;;3.75;100.00;98488.44;2568110;28;20051;-83
2023/04/28 02:44:17;;;;;;;21.88;9.95;;;;;;;3.78;100.00;98483.28;2568103;28;20063;-83
2023/04/28 02:45:33;;;;;;;20.45;9.80;;;;;;;3.71;100.00;98481.53;2568399;28;20494;-82
2023/04/28 02:46:49;;;;;;;22.95;9.65;;;;;;;3.60;100.00;98484.13;2567943;28;20114;-82
2023/04/28 02:48:05;;;;;;;20.90;9.05;;;;;;;3.64;100.00;98477.25;2567939;28;20059;-82
2023/04/28 02:49:21;;;;;;;26.83;9.75;;;;;;;3.55;100.00;98482.41;2568046;28;20236;-83
2023/04/28 02:50:36;;;;;;;22.90;9.57;;;;;;;3.38;100.00;98480.66;2568059;28;20061;-82
2023/04/28 02:51:52;;;;;;;23.50;10.75;;;;;;;3.36;100.00;98474.63;2557146;29;20112;-82
2023/04/28 02:53:07;;;;;;;20.67;10.05;;;;;;;3.43;100.00;98478.94;2561762;28;20095;-83
2023/04/28 02:54:26;;;;;;;19.35;9.20;;;;;;;3.65;100.00;98473.78;2568335;28;20054;-83
2023/04/28 02:55:42;;;;;;;20.63;9.85;;;;;;;3.92;100.00;98477.25;2567591;28;20055;-82
2023/04/28 02:56:58;;;;;;;21.08;10.43;;;;;;;4.07;100.00;98473.75;2568124;28;20058;-83
2023/04/28 02:58:13;;;;;;;23.00;10.57;;;;;;;4.06;100.00;98475.50;2567616;28;20051;-82
2023/04/28 02:59:29;;;;;;;21.27;10.50;;;;;;;4.01;100.00;98466.84;2567919;28;20105;-83
2023/04/28 03:00:46;;;;;;;28.42;11.15;;;;;;;4.06;100.00;98466.84;2567785;28;20086;-83
2023/04/28 03:02:01;;;;;;;25.52;10.18;;;;;;;4.13;100.00;98466.00;2568256;28;20057;-83
2023/04/28 03:03:16;;;;;;;19.90;10.35;;;;;;;4.20;100.00;98452.13;2568062;28;20046;-83
2023/04/28 03:04:32;;;;;;;19.17;9.95;;;;;;;4.22;100.00;98457.34;2568073;28;20074;-83
2023/04/28 03:05:48;;;;;;;23.33;10.57;;;;;;;4.29;100.00;98445.22;2567939;28;20063;-83
2023/04/28 03:07:03;;;;;;;20.83;10.30;;;;;;;4.31;100.00;98440.88;2567914;28;20061;-83
2023/04/28 03:08:19;;;;;;;17.10;9.30;;;;;;;4.28;100.00;98449.53;2567815;28;20063;-82
2023/04/28 03:09:35;;;;;;;20.50;10.48;;;;;;;4.35;100.00;98440.88;2567909;28;20046;-82
2023/04/28 03:10:50;;;;;;;21.23;10.30;;;;;;;4.44;100.00;98450.38;2568054;28;20054;-83
2023/04/28 03:12:06;;;;;;;27.92;11.48;;;;;;;4.32;100.00;98446.06;2567903;28;20059;-83
2023/04/28 03:13:22;;;;;;;25.90;10.80;;;;;;;3.95;100.00;98440.97;2567799;28;20055;-82
2023/04/28 03:14:38;;;;;;;22.45;9.50;;;;;;;3.74;100.00;98447.88;2568060;28;20097;-82
2023/04/28 03:15:53;;;;;;;21.30;10.30;;;;;;;3.68;100.00;98442.72;2567914;28;20062;-83
2023/04/28 03:17:09;;;;;;;24.67;10.18;;;;;;;3.96;100.00;98440.94;2567685;28;20058;-82
2023/04/28 03:18:24;;;;;;;25.30;10.50;;;;;;;4.15;100.00;98440.94;2567085;28;20460;-82
2023/04/28 03:19:40;;;;;;;21.35;10.63;;;;;;;4.33;100.00;98436.56;2567710;28;20549;-82
2023/04/28 03:20:56;;;;;;;25.33;10.88;;;;;;;4.29;100.00;98438.28;2567022;28;20051;-82
2023/04/28 03:22:14;;;;;;;22.13;10.43;;;;;;;4.18;100.00;98450.41;2568029;28;20038;-83
2023/04/28 03:23:29;;;;;;;19.75;9.70;;;;;;;4.23;100.00;98435.72;2567742;28;20066;-83
2023/04/28 03:24:45;;;;;;;23.90;10.65;;;;;;;4.37;100.00;98440.84;2567812;28;20053;-83
2023/04/28 03:26:01;;;;;;;19.48;9.30;;;;;;;4.44;100.00;98433.94;2567571;28;20509;-83
2023/04/28 03:27:16;;;;;;;22.15;10.50;;;;;;;4.58;100.00;98428.72;2567901;28;20054;-83
2023/04/28 03:28:32;;;;;;;21.35;10.55;;;;;;;4.66;100.00;98424.34;2567389;28;20063;-83
2023/04/28 03:29:47;;;;;;;22.10;9.88;;;;;;;4.71;100.00;98420.00;2567722;28;20065;-81
2023/04/28 03:31:03;;;;;;;25.60;9.85;;;;;;;4.66;100.00;98424.34;2567626;28;20059;-82
2023/04/28 03:32:19;;;;;;;22.88;9.45;;;;;;;4.16;100.00;98428.81;2567678;28;20142;-82
2023/04/28 03:33:34;;;;;;;22.02;10.30;;;;;;;4.28;100.00;98428.78;2557134;29;20554;-82
2023/04/28 03:34:50;;;;;;;21.33;10.23;;;;;;;4.39;100.00;98428.75;2561103;28;20113;-82
2023/04/28 03:36:06;;;;;;;20.60;9.80;;;;;;;4.59;100.00;98422.66;2567811;28;20426;-82
2023/04/28 03:37:21;;;;;;;19.80;9.80;;;;;;;4.67;100.00;98426.06;2567641;28;20047;-82
2023/04/28 03:38:37;;;;;;;23.08;11.02;;;;;;;4.72;100.00;98423.44;2567698;28;20094;-82
2023/04/28 03:39:53;;;;;;;21.23;9.75;;;;;;;4.68;100.00;98426.94;2567489;28;20059;-82
2023/04/28 03:41:09;;;;;;;20.55;9.45;;;;;;;4.79;100.00;98428.59;2567624;28;20051;-82
2023/04/28 03:42:24;;;;;;;19.00;9.55;;;;;;;4.45;100.00;98425.28;2566560;28;20167;-82
2023/04/28 03:43:40;;;;;;;20.83;9.75;;;;;;;4.45;100.00;98430.47;2566974;28;20055;-82
2023/04/28 03:44:55;;;;;;;17.35;9.15;;;;;;;4.46;100.00;98430.47;2567289;28;20062;-82
2023/04/28 03:46:11;;;;;;;21.08;9.85;;;;;;;4.61;100.00;98428.69;2567487;28;20470;-82
2023/04/28 03:47:27;;;;;;;20.70;10.00;;;;;;;4.46;100.00;98421.81;2567289;28;20062;-82
2023/04/28 03:48:42;;;;;;;21.50;10.27;;;;;;;4.61;100.00;98426.97;2566759;28;20467;-82
2023/04/28 03:49:58;;;;;;;22.23;9.85;;;;;;;4.48;100.00;98425.28;2568176;28;20518;-82
2023/04/28 03:51:14;;;;;;;22.92;10.27;;;;;;;4.44;100.00;98427.03;2567574;28;20462;-82
2023/04/28 03:52:29;;;;;;;19.60;8.98;;;;;;;4.65;100.00;98418.31;2567772;28;20490;-82
2023/04/28 03:53:45;;;;;;;19.95;9.52;;;;;;;4.56;100.00;98428.69;2568922;28;20086;-82
2023/04/28 03:55:01;;;;;;;21.55;10.05;;;;;;;4.63;100.00;98426.94;2569861;28;20063;-81
2023/04/28 03:56:16;;;;;;;18.77;9.40;;;;;;;4.50;100.00;98423.56;2569559;28;20129;-81
2023/04/28 03:57:32;;;;;;;19.58;10.43;;;;;;;4.41;100.00;98419.28;2569205;28;20145;-81
2023/04/28 03:58:48;;;;;;;20.00;9.85;;;;;;;4.52;100.00;98417.47;2570320;28;20141;-81
2023/04/28 04:00:04;;;;;;;26.75;14.13;;;;;;;4.74;100.00;98416.50;2569576;28;20054;-82
2023/04/28 04:01:20;;;;;;;26.25;14.38;;;;;;;4.65;100.00;98418.31;2569616;28;20089;-82
2023/04/28 04:02:35;;;;;;;24.00;11.23;;;;;;;4.71;100.00;98412.22;2569889;28;20065;-82
2023/04/28 04:03:52;;;;;;;18.35;10.80;;;;;;;4.72;100.00;98411.34;2569270;28;20114;-82
2023/04/28 04:05:07;;;;;;;19.65;10.35;;;;;;;4.82;100.00;98414.75;2567937;28;20588;-82
2023/04/28 04:06:24;;;;;;;20.25;9.43;;;;;;;4.87;100.00;98419.94;2569149;28;20066;-82
2023/04/28 04:07:40;;;;;;;24.50;10.40;;;;;;;4.86;100.00;98418.22;2569526;28;20644;-82
2023/04/28 04:08:56;;;;;;;19.58;9.98;;;;;;;4.84;100.00;98420.78;2569067;28;20058;-82
2023/04/28 04:10:11;;;;;;;20.90;10.15;;;;;;;4.57;100.00;98414.88;2569459;28;20070;-82
2023/04/28 04:11:27;;;;;;;21.90;9.55;;;;;;;4.55;100.00;98413.16;2569215;28;20055;-82
2023/04/28 04:12:43;;;;;;;18.85;9.00;;;;;;;4.61;100.00;98411.41;2568975;28;20059;-83
2023/04/28 04:13:58;;;;;;;16.83;9.32;;;;;;;4.68;100.00;98407.06;2569641;28;20489;-83
2023/04/28 04:15:15;;;;;;;20.17;10.07;;;;;;;4.78;100.00;98403.53;2569348;28;20446;-83
2023/04/28 04:16:31;;;;;;;26.13;10.32;;;;;;;4.61;100.00;98401.03;2568907;28;20090;-83
2023/04/28 04:17:46;;;;;;;20.58;9.75;;;;;;;4.79;100.00;98404.41;2569155;28;20054;-82
2023/04/28 04:19:02;;;;;;;22.13;10.05;;;;;;;4.55;100.00;98401.06;2568620;28;20117;-83
2023/04/28 04:20:17;;;;;;;19.60;9.68;;;;;;;4.78;100.00;98400.94;2567725;28;20061;-83
2023/04/28 04:21:33;;;;;;;24.58;9.73;;;;;;;4.74;100.00;98401.81;2568281;28;20083;-82
2023/04/28 04:22:48;;;;;;;24.17;12.00;;;;;;;4.76;100.00;98399.25;2568555;28;20074;-82
2023/04/28 04:24:05;;;;;;;20.83;10.05;;;;;;;4.80;100.00;98398.34;2568627;28;20062;-82
2023/04/28 04:25:20;;;;;;;22.05;10.00;;;;;;;4.77;100.00;98401.81;2569222;28;20050;-83
2023/04/28 04:26:36;;;;;;;20.50;9.60;;;;;;;5.06;100.00;98395.59;2568404;28;20046;-82
2023/04/28 04:27:51;;;;;;;21.02;10.20;;;;;;;4.76;100.00;98396.66;2570037;28;20061;-82
2023/04/28 04:29:07;;;;;;;17.50;9.65;;;;;;;4.79;100.00;98397.47;2571431;28;20069;-81
2023/04/28 04:30:22;;;;;;;20.35;9.18;;;;;;;4.87;100.00;98405.22;2571121;28;20053;-82
2023/04/28 04:31:38;;;;;;;22.83;10.70;;;;;;;4.85;100.00;98403.50;2570312;28;20093;-82
2023/04/28 04:32:53;;;;;;;22.05;9.63;;;;;;;4.77;100.00;98404.41;2572001;28;20054;-82
2023/04/28 04:34:09;;;;;;;20.15;10.10;;;;;;;4.84;100.00;98407.81;2571407;28;20059;-82
2023/04/28 04:35:25;;;;;;;19.67;9.27;;;;;;;4.99;100.00;98411.19;2560226;29;20125;-82
2023/04/28 04:36:41;;;;;;;22.55;10.25;;;;;;;4.93;100.00;98410.38;2564744;28;20050;-82
2023/04/28 04:37:56;;;;;;;22.10;10.23;;;;;;;5.07;100.00;98405.09;2571464;28;20078;-82
2023/04/28 04:39:12;;;;;;;26.60;10.65;;;;;;;4.81;100.00;98407.84;2571607;28;20089;-82
2023/04/28 04:40:27;;;;;;;24.80;11.02;;;;;;;4.79;100.00;98399.22;2571175;28;20065;-84
2023/04/28 04:41:43;;;;;;;31.13;11.95;;;;;;;4.75;100.00;98408.75;2571523;28;20066;-82
2023/04/28 04:43:00;;;;;;;22.33;10.15;;;;;;;4.65;100.00;98410.53;2571244;28;20058;-83
2023/04/28 04:44:15;;;;;;;22.20;9.55;;;;;;;4.68;100.00;98411.38;2571432;28;20448;-82
2023/04/28 04:45:31;;;;;;;24.55;10.05;;;;;;;4.75;100.00;98408.75;2570795;28;20047;-81
2023/04/28 04:46:47;;;;;;;22.45;10.20;;;;;;;4.80;100.00;98409.56;2566760;28;20312;-82
2023/04/28 04:48:02;;;;;;;24.10;10.38;;;;;;;4.80;100.00;98409.56;2568355;28;20062;-83
2023/04/28 04:49:18;;;;;;;22.52;9.73;;;;;;;4.65;100.00;98405.34;2570896;28;20059;-83
2023/04/28 04:50:33;;;;;;;19.17;9.73;;;;;;;4.85;100.00;98412.13;2570118;28;20074;-81
2023/04/28 04:51:49;;;;;;;20.25;9.40;;;;;;;4.74;100.00;98407.03;2572486;28;20051;-82
2023/04/28 04:53:07;;;;;;;23.08;9.98;;;;;;;4.79;100.00;98415.63;2572571;28;20059;-83
2023/04/28 04:54:23;;;;;;;22.75;9.27;;;;;;;4.83;100.00;98415.63;2572055;28;20086;-82
2023/04/28 04:55:39;;;;;;;19.10;9.75;;;;;;;4.66;100.00;98416.56;2571955;28;20075;-82
2023/04/28 04:56:55;;;;;;;22.20;10.23;;;;;;;5.02;100.00;98413.78;2571502;28;20509;-82
2023/04/28 04:58:10;;;;;;;21.60;10.18;;;;;;;4.98;100.00;98419.84;2571513;28;20065;-82
2023/04/28 04:59:27;;;;;;;21.85;10.82;;;;;;;5.19;100.00;98416.28;2571333;28;20090;-82
2023/04/28 05:00:42;;;;;;;20.55;9.90;;;;;;;5.13;100.00;98417.16;2570905;28;20055;-83
2023/04/28 05:01:58;;;;;;;22.83;10.48;;;;;;;5.14;100.00;98415.44;2571411;28;20399;-82
2023/04/28 05:03:13;;;;;;;20.38;10.05;;;;;;;5.11;100.00;98408.53;2571724;28;20465;-82
2023/04/28 05:04:29;;;;;;;16.02;9.27;;;;;;;5.05;100.00;98406.00;2570479;28;20077;-82
2023/04/28 05:05:45;;;;;;;23.98;9.77;;;;;;;5.12;100.00;98414.59;2570374;28;20059;-82
2023/04/28 05:07:00;;;;;;;19.83;9.82;;;;;;;5.24;100.00;98414.53;2570179;28;20050;-82
2023/04/28 05:08:16;;;;;;;17.48;9.02;;;;;;;5.19;100.00;98411.06;2570868;28;20051;-82
2023/04/28 05:09:32;;;;;;;21.83;9.75;;;;;;;5.18;100.00;98405.03;2570242;28;20113;-82
2023/04/28 05:10:48;;;;;;;19.52;9.43;;;;;;;5.29;100.00;98409.28;2570270;28;20062;-82
2023/04/28 05:12:04;;;;;;;17.25;9.38;;;;;;;5.33;100.00;98404.06;2570392;28;20058;-82
2023/04/28 05:13:20;;;;;;;19.67;9.27;;;;;;;5.47;100.00;98403.09;2570118;28;20137;-82
2023/04/28 05:14:35;;;;;;;17.58;9.10;;;;;;;5.34;100.00;98400.59;2569857;28;20062;-82
2023/04/28 05:15:51;;;;;;;23.33;9.73;;;;;;;5.39;100.00;98402.31;2569710;28;20090;-84
2023/04/28 05:17:07;;;;;;;22.75;10.00;;;;;;;5.54;100.00;98399.59;2569812;28;20509;-82
2023/04/28 05:18:22;;;;;;;20.02;9.38;;;;;;;5.67;100.00;98400.31;2570130;28;20054;-82
2023/04/28 05:19:38;;;;;;;20.83;10.32;;;;;;;5.71;100.00;98399.41;2569909;28;20054;-82
2023/04/28 05:20:53;;;;;;;20.30;9.43;;;;;;;5.74;100.00;98398.53;2569890;28;20465;-82
2023/04/28 05:22:10;;;;;;;22.05;10.38;;;;;;;5.79;100.00;98394.16;2569515;28;20066;-82
2023/04/28 05:23:25;;;;;;;20.15;9.27;;;;;;;5.80;100.00;98395.91;2569608;28;20043;-82
2023/04/28 05:24:41;;;;;;;20.50;9.80;;;;;;;5.82;100.00;98395.88;2569528;28;20121;-82
2023/04/28 05:25:57;;;;;;;17.10;8.60;;;;;;;5.82;100.00;98393.25;2569506;28;20054;-82
2023/04/28 05:27:13;;;;;;;18.60;9.52;;;;;;;5.70;100.00;98395.09;2569213;28;20046;-82
2023/04/28 05:28:29;;;;;;;21.00;9.43;;;;;;;5.57;100.00;98396.06;2569124;28;20063;-83
2023/04/28 05:29:45;;;;;;;22.25;9.80;;;;;;;5.76;100.00;98404.56;2569897;28;20089;-83
2023/04/28 05:31:01;;;;;;;20.95;9.70;;;;;;;5.86;100.00;98389.75;2569354;28;20059;-83
2023/04/28 05:32:16;;;;;;;18.92;9.68;;;;;;;5.81;100.00;98397.63;2579078;28;20062;-82
2023/04/28 05:33:32;;;;;;;21.95;10.35;;;;;;;5.89;100.00;98394.94;2575216;28;20096;-83
2023/04/28 05:34:48;;;;;;;22.02;10.48;;;;;;;6.04;100.00;98388.75;2569232;28;20054;-83
2023/04/28 05:36:04;;;;;;;23.98;10.55;;;;;;;6.13;100.00;98382.59;2569636;28;20094;-82
2023/04/28 05:37:19;;;;;;;22.77;9.85;;;;;;;5.96;100.00;98375.81;2569773;28;20576;-83
2023/04/28 05:38:35;;;;;;;23.55;10.38;;;;;;;6.05;100.00;98380.94;2569922;28;20453;-84
2023/04/28 05:39:51;;;;;;;22.15;10.52;;;;;;;6.10;100.00;98372.22;2569105;28;20059;-83
2023/04/28 05:41:06;;;;;;;20.00;10.00;;;;;;;6.35;100.00;98362.38;2569639;28;20470;-83
2023/04/28 05:42:22;;;;;;;25.85;10.38;;;;;;;6.34;100.00;98371.94;2569540;28;20051;-83
2023/04/28 05:43:38;;;;;;;23.55;10.68;;;;;;;6.42;100.00;98368.38;2569286;28;20138;-83
2023/04/28 05:44:53;;;;;;;22.90;11.15;;;;;;;6.54;100.00;98373.44;2569430;28;20549;-83
2023/04/28 05:46:09;;;;;;;21.35;10.88;;;;;;;6.67;100.00;98386.28;2569585;28;20062;-84
2023/04/28 05:47:24;;;;;;;20.65;10.48;;;;;;;6.46;100.00;98378.72;2569390;28;20058;-85
2023/04/28 05:48:41;;;;;;;21.65;9.13;;;;;;;6.50;100.00;98383.03;2568795;28;20417;-84
2023/04/28 05:49:57;;;;;;;18.95;9.57;;;;;;;6.71;100.00;98385.38;2569491;28;20078;-91
2023/04/28 05:51:12;;;;;;;17.67;9.20;;;;;;;6.44;100.00;98382.25;2570899;28;20051;-92